Aérodrome :
LOGIN :

S'inscrire | Disclaimer

   EN    FR    IT 

 










Légende :    VFR   VFR Marginal   IFR   IFR Intensif   IFR Très Intensif
Visi : 
Plafond : 
>= 8 km
>= 3000ft
5 à 8 km
1000 à 3000 ft
1500m à 5 km
500 à 1000 ft
800 à 1500m
200 à 500 ft
< 800m
< 200 ft
Symboles :   Orages  Brouillard  Fortes neiges  Fortes précipitations  Vent > 20 kt
SIGMETs :   Divers  Orages  Givrage  Turbulence  Onde Orograph.  Cendres Volcan.







- Altitude de l'aérodrome : 468 ft
- Code IATA : GRO


LEGE - Girona Costa Brava

DERNIER METAR :
  • 230630Z 31003KT 290V350 9000 SCT035 17/14 Q1018

METARs EXPIRÉS :
  • 230600Z 30004KT 9000 SCT050 16/13 Q1018
  • 230530Z 30003KT 9000 SCT050 16/13 Q1018
  • 230430Z 00000KT 9000 SCT050 16/14 Q1017
  • 230400Z VRB02KT 9000 BKN060 17/14 Q1017
  • 230000Z VRB02KT 9000 BKN040 17/13 Q1016

TAF TAF LEGE
Valide du 23 à 06h jusqu'au 24 à 06h UTC


230500Z 2306/2406 VRB03KT 9999 FEW035 TX27/2313Z TN14/2406Z
BECMG 2310/2312 16010KT
BECMG 2317/2319 VRB03KT
PROB40
TEMPO 2402/2406 2000 BR BKN010
Pas de NOTAMs connus pour ce terrain.



MET'MAP, la Météo Aéronautique d'un coup d'oeil ! - Copyright ORBIFLY Décembre 2007 - Disclaimer

ORBIFLY MET'MAP TEAM :

Programmation & Développement : Alexandra Zaïnal
Conception & Développement : Baudouin d'Aumeries
Co-Programmation & Développement : Marc-Olivier Méhu
Soutien technique & logistique : Manuel Goepfert

Contact : metmap@orbifly.com




SOURCES & CREDITS :

   NOAA